Wommelgem, Belgium
Current Conditions -  °F | °C
As of 2:20 PM on Thursday 18 Dec 2014 (Local Time) from EBAW Reporting Station
Broken Clouds Broken Clouds  
Wind Chill: 55°   Ceiling: 800
Heat Index: 55°   Visibility: 6mi
Dew Point: 52°   Wind: 14mph
Humidity: 88%   Direction: 250°WSW
Pressure: 29.85"   Gusts: 25mph
Location:  51.2°N, 4.52°E
Report Text: EBAW 181320Z 25012G22KT 9999 SCT007 BKN008 13/11 Q1011 TEMPO 4000 DZ BKN006
Loading
Personal Weather Stations






























Interactive Weather Map New forecast layout! Learn more

10-Day Weather Forecast

Advertisements
Track Severe Weather on mobile